Airfield :
LOGIN :

Register | Disclaimer

   EN    FR    IT 

 










Legend :    VFR   Marginal VFR   IFR   Intensive IFR   Very Intensive IFR
Visi :
Ceiling :
>= 8 km
>= 3000ft
5 to 8 km
1000 to 3000 ft
1500m to 5 km
500 to 1000 ft
800 to 1500m
200 to 500 ft
< 800m
< 200 ft
Symbols :   Thunderstorms  Fog  Heavy snow  Heavy precipitations  Wind > 20 kt
SIGMETs :     Misc.  Thunderstorms  Icing  Turbulence  Mountain Waves  Volcanic Ashes






- Airport Elevation : 102 ft
- IATA code : EXT


EGTE - Exeter

CURRENT METAR :
  • 280950Z 16011KT 9000 SCT006 SCT020 10/10 Q1003

EXPIRED METARs :
  • 280920Z 15017KT 5000 BR BKN006 08/08 Q1003
  • 280850Z 15018KT 5000 BR BKN007 07/07 Q1004
  • 280820Z 16018KT 5000 -RA BR FEW007 BKN015 06/06 Q1005
  • 280750Z 15019KT 5000 -RA BR FEW009 BKN015 07/06 Q1006
  • 280720Z 15017KT 6000 -RA FEW009 BKN015 07/06 Q1007

TAF TAF EGTE
Valid from the 28 at 09:00 until the 28 at 18:00 UTC


280805Z 2809/2818 16018G28KT 9999 SCT010 BKN020
BECMG 2809/2812 23016KT
TEMPO 2809/2812 6000 RA BKN008
PROB40
TEMPO 2809/2812 3000 +RADZ BR BKN004
TEMPO 2812/2818 23020G30KT 6000 RA BKN010
PROB30
TEMPO 2812/2818 BKN008



MET'MAP, your aeronautical weather chart ! - Copyright ORBIFLY December 2007 - Disclaimer

ORBIFLY MET'MAP TEAM :

Programming & Development : Alexandra Zaïnal
Concept & original design : Baudouin d'Aumeries
Assistance for programming : Marc-Olivier Méhu
Technical & hardware support : Manuel Goepfert

Contact : metmap@orbifly.com




SOURCES & CREDITS :

   NOAA